Time;durP1;ratioP1;P1;durP2;ratioP2;P2;SDS_P1;SDS_P2;PMS_P1;PMS_P2;Temp;Humidity;BMP_temperature;BMP_pressure;BME280_temperature;BME280_humidity;BME280_pressure;Samples;Min_cycle;Max_cycle;Signal;HPM_P1;HPM_P2
2023/04/23 00:02:15;;;;;;;6.97;2.40;;;16.30;76.80;;;;;;21088289;28;20243;-64
2023/04/23 00:12:17;;;;;;;3.13;2.50;;;16.20;77.70;;;;;;21087216;28;20211;-65
2023/04/23 00:22:19;;;;;;;5.47;2.90;;;16.10;78.00;;;;;;21009990;28;20228;-66
2023/04/23 00:32:21;;;;;;;7.00;3.00;;;16.00;79.40;;;;;;21002587;28;20280;-65
2023/04/23 00:42:24;;;;;;;3.53;2.70;;;16.00;80.50;;;;;;21000979;28;20261;-66
2023/04/23 00:52:25;;;;;;;4.90;2.57;;;16.00;81.30;;;;;;20999803;28;20286;-66
2023/04/23 01:02:29;;;;;;;5.10;2.90;;;15.90;82.10;;;;;;20999632;28;20236;-65
2023/04/23 01:12:32;;;;;;;5.20;2.80;;;15.90;82.70;;;;;;20998721;28;20283;-65
2023/04/23 01:22:37;;;;;;;6.60;3.60;;;15.90;83.30;;;;;;21076248;28;20230;-65
2023/04/23 01:32:39;;;;;;;4.50;3.00;;;15.80;84.20;;;;;;21081488;28;20208;-65
2023/04/23 01:42:41;;;;;;;5.37;3.03;;;15.80;85.00;;;;;;21080031;28;20234;-65
2023/04/23 01:52:44;;;;;;;4.23;2.83;;;15.50;88.50;;;;;;21079629;28;20237;-65
2023/04/23 02:02:46;;;;;;;4.23;2.70;;;15.30;90.60;;;;;;21079169;28;20251;-65
2023/04/23 02:12:48;;;;;;;3.57;2.70;;;15.30;91.00;;;;;;21079013;28;20265;-65
2023/04/23 02:22:50;;;;;;;7.00;2.83;;;14.90;93.00;;;;;;20997922;28;20233;-67
2023/04/23 02:32:53;;;;;;;6.17;2.70;;;14.90;94.10;;;;;;20995341;28;20651;-65
2023/04/23 02:42:55;;;;;;;4.67;2.70;;;14.90;94.30;;;;;;20994228;28;20602;-64
2023/04/23 02:52:57;;;;;;;4.40;2.63;;;14.90;95.00;;;;;;20993451;28;20234;-64
2023/04/23 03:02:58;;;;;;;3.83;2.83;;;14.80;95.50;;;;;;20993525;28;20257;-66
2023/04/23 03:13:00;;;;;;;5.93;2.70;;;14.70;95.90;;;;;;20997299;28;20250;-66
2023/04/23 03:23:05;;;;;;;3.43;2.87;;;14.60;96.40;;;;;;21089719;28;20234;-65
2023/04/23 03:33:06;;;;;;;3.80;2.77;;;14.60;96.80;;;;;;21091046;28;20548;-65
2023/04/23 03:43:08;;;;;;;2.80;2.33;;;14.60;97.10;;;;;;21089579;28;20238;-65
2023/04/23 03:53:10;;;;;;;3.60;2.40;;;14.60;97.20;;;;;;21088707;28;20812;-65
2023/04/23 04:03:12;;;;;;;2.13;1.93;;;14.60;97.30;;;;;;21088358;28;20239;-65
2023/04/23 04:13:14;;;;;;;2.23;2.03;;;14.60;97.50;;;;;;21086920;28;20666;-66
2023/04/23 04:23:16;;;;;;;2.40;2.13;;;14.50;97.40;;;;;;21002307;28;20727;-65
2023/04/23 04:33:19;;;;;;;2.57;2.20;;;14.60;97.40;;;;;;21002237;28;20207;-66
2023/04/23 04:43:21;;;;;;;2.50;2.27;;;14.60;97.60;;;;;;21000996;28;20244;-66
2023/04/23 04:53:22;;;;;;;2.50;2.20;;;14.50;97.00;;;;;;21000108;28;20234;-65
2023/04/23 05:03:25;;;;;;;2.80;2.20;;;14.50;96.40;;;;;;20999687;28;20273;-65
2023/04/23 05:13:26;;;;;;;2.40;2.20;;;14.50;96.70;;;;;;21000511;28;20603;-65
2023/04/23 05:23:28;;;;;;;2.97;2.33;;;14.50;97.00;;;;;;21081713;28;20232;-65
2023/04/23 05:33:31;;;;;;;4.17;2.57;;;14.60;97.20;;;;;;21080735;28;20214;-65
2023/04/23 05:43:47;;;;;;;7.43;5.90;;;14.70;97.40;;;;;;21080434;28;20264;-65
2023/04/23 05:53:48;;;;;;;5.60;4.60;;;14.70;97.40;;;;;;21079336;28;20708;-65
2023/04/23 06:03:51;;;;;;;3.00;2.50;;;14.60;97.60;;;;;;21079738;28;20206;-66
2023/04/23 06:13:55;;;;;;;3.47;2.60;;;14.60;97.90;;;;;;21072761;28;20199;-66
2023/04/23 06:23:57;;;;;;;3.90;3.00;;;14.80;98.00;;;;;;20994733;28;20250;-66
2023/04/23 06:33:58;;;;;;;3.00;2.50;;;15.30;97.60;;;;;;20993703;28;20253;-65
2023/04/23 06:44:00;;;;;;;3.73;2.50;;;15.50;97.20;;;;;;20992029;28;20296;-65
2023/04/23 06:54:02;;;;;;;6.23;2.20;;;15.50;96.30;;;;;;21008588;28;20227;-65
2023/04/23 07:04:04;;;;;;;3.20;2.10;;;15.70;94.50;;;;;;21009060;28;20207;-66
2023/04/23 07:14:05;;;;;;;2.30;2.10;;;15.60;94.50;;;;;;21015098;28;20237;-66
2023/04/23 07:24:07;;;;;;;2.17;1.97;;;15.60;93.30;;;;;;21090685;28;20273;-66
2023/04/23 07:34:09;;;;;;;3.03;2.13;;;15.60;93.30;;;;;;21089205;28;20231;-66
2023/04/23 07:44:11;;;;;;;3.00;2.03;;;15.70;92.80;;;;;;21087628;28;20198;-66
2023/04/23 07:54:13;;;;;;;3.23;2.20;;;16.00;92.00;;;;;;21088150;28;20262;-66
2023/04/23 08:04:14;;;;;;;5.73;2.10;;;16.50;90.30;;;;;;21087129;28;20268;-66
2023/04/23 08:14:17;;;;;;;3.40;2.80;;;16.80;88.50;;;;;;21077684;28;20238;-66
2023/04/23 08:24:19;;;;;;;3.73;3.03;;;16.80;89.00;;;;;;21002786;28;20205;-66
2023/04/23 08:34:20;;;;;;;4.20;2.50;;;16.60;87.70;;;;;;21002273;28;20223;-65
2023/04/23 08:44:24;;;;;;;2.90;2.20;;;16.90;86.90;;;;;;21000974;28;20202;-65
2023/04/23 08:54:27;;;;;;;2.30;2.10;;;17.10;86.00;;;;;;20999820;28;20246;-65
2023/04/23 09:04:30;;;;;;;3.60;2.07;;;17.50;84.30;;;;;;20999120;28;20222;-65
2023/04/23 09:14:33;;;;;;;2.27;1.97;;;17.90;80.90;;;;;;21008135;28;20566;-66
2023/04/23 09:24:34;;;;;;;3.10;2.23;;;17.70;78.70;;;;;;21081685;28;20209;-66
2023/04/23 09:34:36;;;;;;;2.80;2.20;;;17.60;77.00;;;;;;21081131;28;20230;-65
2023/04/23 09:44:38;;;;;;;4.27;2.20;;;17.40;75.20;;;;;;21080226;28;20202;-66
2023/04/23 09:54:41;;;;;;;6.33;5.50;;;17.60;76.60;;;;;;21079341;28;20237;-65
2023/04/23 10:04:43;;;;;;;2.60;2.00;;;17.80;76.40;;;;;;21079536;28;20657;-65
2023/04/23 10:14:45;;;;;;;3.97;1.90;;;18.20;76.40;;;;;;21065618;28;20227;-65
2023/04/23 10:24:51;;;;;;;2.10;1.80;;;18.60;74.10;;;;;;21004366;28;20208;-66
2023/04/23 10:34:53;;;;;;;2.07;1.70;;;18.90;71.80;;;;;;21010852;28;20232;-66
2023/04/23 10:44:57;;;;;;;2.50;1.70;;;19.20;67.90;;;;;;21009602;28;20215;-66
2023/04/23 10:55:16;;;;;;;2.03;1.60;;;18.70;62.50;;;;;;21008856;28;20245;-66
2023/04/23 11:05:18;;;;;;;3.50;1.50;;;18.50;62.30;;;;;;21008832;28;20680;-66
2023/04/23 11:15:20;;;;;;;3.40;1.73;;;18.60;59.90;;;;;;21025934;28;20226;-65
2023/04/23 11:25:23;;;;;;;4.20;1.80;;;18.70;58.90;;;;;;21090480;28;20214;-66
2023/04/23 11:35:27;;;;;;;1.70;1.50;;;19.20;58.60;;;;;;21088592;28;20235;-66
2023/04/23 11:45:29;;;;;;;2.70;1.30;;;19.30;59.50;;;;;;21089888;28;20202;-66
2023/04/23 11:55:31;;;;;;;3.23;1.50;;;19.90;58.50;;;;;;21088671;28;20242;-66
2023/04/23 12:05:41;;;;;;;2.13;1.50;;;20.00;57.00;;;;;;21086978;28;20207;-64
2023/04/23 12:15:57;;;;;;;3.80;2.87;;;20.20;56.70;;;;;;21066574;28;20234;-65
2023/04/23 12:25:59;;;;;;;1.30;1.20;;;20.40;56.30;;;;;;21002884;28;20772;-65
2023/04/23 12:36:02;;;;;;;3.10;1.70;;;20.90;53.10;;;;;;21001603;28;20235;-66
2023/04/23 12:46:04;;;;;;;2.13;1.40;;;20.90;53.30;;;;;;21001005;28;20578;-65
2023/04/23 12:56:06;;;;;;;5.67;1.80;;;21.20;52.90;;;;;;20999615;28;20264;-65
2023/04/23 13:06:08;;;;;;;1.23;0.90;;;21.30;51.50;;;;;;20999351;28;20199;-66
2023/04/23 13:16:10;;;;;;;2.00;1.40;;;21.50;51.00;;;;;;21023393;28;20621;-66
2023/04/23 13:26:13;;;;;;;1.70;1.33;;;21.70;50.00;;;;;;21081970;28;20738;-65
2023/04/23 13:36:14;;;;;;;4.53;1.60;;;21.60;50.70;;;;;;21081317;28;20235;-66
2023/04/23 13:46:16;;;;;;;3.07;1.30;;;22.00;50.10;;;;;;21082000;28;20208;-66
2023/04/23 13:56:18;;;;;;;1.65;1.13;;;22.70;49.20;;;;;;21079059;28;20260;-66
2023/04/23 14:06:20;;;;;;;1.10;1.00;;;27.30;45.60;;;;;;21079375;28;20203;-66
2023/04/23 14:16:21;;;;;;;2.45;0.90;;;31.30;40.00;;;;;;21052708;28;20241;-67
2023/04/23 14:26:30;;;;;;;0.70;0.63;;;31.60;36.40;;;;;;20994987;28;20211;-66
2023/04/23 14:36:35;;;;;;;1.50;0.90;;;33.10;32.70;;;;;;20994415;28;20238;-66
2023/04/23 14:46:37;;;;;;;0.95;0.80;;;;;;;;;;20994123;28;20294;-66
2023/04/23 14:56:40;;;;;;;0.80;0.80;;;33.80;32.00;;;;;;20993345;28;20273;-68
2023/04/23 15:06:42;;;;;;;1.23;0.90;;;32.30;31.20;;;;;;20995798;28;20568;-65
2023/04/23 15:16:44;;;;;;;1.50;0.95;;;29.00;34.60;;;;;;21037936;28;20236;-66
2023/04/23 15:26:52;;;;;;;1.52;0.90;;;27.50;35.50;;;;;;21091231;28;20213;-66
2023/04/23 15:36:53;;;;;;;2.92;1.10;;;25.40;37.90;;;;;;21090317;28;20697;-66
2023/04/23 15:46:55;;;;;;;3.73;1.00;;;25.10;38.50;;;;;;21089849;28;20294;-66
2023/04/23 15:56:57;;;;;;;1.97;1.10;;;24.20;40.50;;;;;;21088681;28;20281;-66
2023/04/23 16:06:59;;;;;;;1.10;1.00;;;24.20;40.90;;;;;;21088207;28;20202;-66
2023/04/23 16:17:01;;;;;;;1.33;1.03;;;24.00;41.60;;;;;;21055689;28;20233;-66
2023/04/23 16:27:05;;;;;;;1.20;1.10;;;23.40;42.40;;;;;;21002960;28;20613;-66
2023/04/23 16:37:06;;;;;;;1.40;1.10;;;22.80;43.20;;;;;;21002701;28;20246;-66
2023/04/23 16:47:08;;;;;;;1.63;1.17;;;22.00;44.20;;;;;;21001451;28;20210;-66
2023/04/23 16:57:10;;;;;;;2.37;1.17;;;21.40;44.90;;;;;;21000406;28;20235;-66
2023/04/23 17:07:12;;;;;;;3.30;1.20;;;21.30;45.60;;;;;;21000713;28;20215;-66
2023/04/23 17:17:13;;;;;;;2.50;1.20;;;21.20;46.20;;;;;;21033069;28;20689;-66
2023/04/23 17:27:15;;;;;;;1.40;1.30;;;21.20;46.80;;;;;;21082302;28;20293;-65
2023/04/23 17:37:17;;;;;;;3.83;1.30;;;21.10;47.40;;;;;;21080333;28;20242;-66
2023/04/23 17:47:18;;;;;;;1.87;1.60;;;20.80;48.10;;;;;;21080834;28;20210;-65
2023/04/23 17:57:20;;;;;;;1.37;1.27;;;20.40;49.10;;;;;;21079606;28;20242;-66
2023/04/23 18:07:22;;;;;;;1.97;1.53;;;19.90;50.00;;;;;;21079352;28;20210;-66
2023/04/23 18:17:24;;;;;;;2.80;2.20;;;19.80;50.70;;;;;;21044150;28;20222;-66
2023/04/23 18:27:26;;;;;;;5.00;1.40;;;19.70;51.60;;;;;;20994925;28;20250;-65
2023/04/23 18:37:51;;;;;;;1.77;1.23;;;17.10;69.10;;;;;;20994162;28;20240;-65
2023/04/23 18:48:01;;;;;;;1.57;1.00;;;15.40;92.10;;;;;;21007039;28;20615;-65
2023/04/23 18:58:03;;;;;;;4.43;1.10;;;15.20;95.90;;;;;;21007739;28;20249;-65
2023/04/23 19:08:04;;;;;;;1.43;1.10;;;15.30;96.60;;;;;;21008620;28;20270;-65
2023/04/23 19:18:06;;;;;;;2.90;1.20;;;15.40;96.80;;;;;;21007352;28;20325;-64
2023/04/23 19:28:08;;;;;;;1.13;0.97;;;15.40;96.80;;;;;;21005840;28;20212;-66
2023/04/23 19:38:10;;;;;;;3.17;1.70;;;15.20;97.30;;;;;;21003049;28;20242;-65
2023/04/23 19:48:12;;;;;;;2.70;1.20;;;15.10;98.00;;;;;;21003510;28;20214;-66
2023/04/23 19:58:14;;;;;;;1.23;1.10;;;15.00;97.90;;;;;;21001476;28;20249;-66
2023/04/23 20:08:27;;;;;;;10.80;2.00;;;14.90;98.40;;;;;;21002442;28;20204;-65
2023/04/23 20:18:33;;;;;;;2.77;1.90;;;14.90;98.50;;;;;;21001394;28;20228;-65
2023/04/23 20:28:36;;;;;;;3.47;1.70;;;14.90;98.50;;;;;;20999858;28;20303;-66
2023/04/23 20:38:37;;;;;;;1.70;1.60;;;14.80;98.20;;;;;;20999856;28;20714;-65
2023/04/23 20:48:42;;;;;;;3.80;1.70;;;14.80;98.60;;;;;;20999160;28;20220;-64
2023/04/23 20:58:44;;;;;;;1.97;1.50;;;14.70;98.60;;;;;;20999574;28;20279;-64
2023/04/23 21:08:46;;;;;;;5.07;1.40;;;14.60;98.50;;;;;;20999334;28;20662;-64
2023/04/23 21:18:47;;;;;;;2.63;1.27;;;14.60;98.50;;;;;;20998808;28;20231;-65
2023/04/23 21:28:49;;;;;;;1.67;1.03;;;14.50;98.30;;;;;;20998505;28;20740;-65
2023/04/23 21:38:51;;;;;;;2.57;1.33;;;14.40;98.30;;;;;;20996984;28;20254;-64
2023/04/23 21:48:53;;;;;;;1.50;1.40;;;14.40;98.00;;;;;;20996749;28;20298;-64
2023/04/23 21:58:55;;;;;;;1.33;1.23;;;14.30;98.20;;;;;;20996488;28;20247;-64
2023/04/23 22:08:57;;;;;;;3.10;1.60;;;14.30;98.20;;;;;;20995890;28;20269;-64
2023/04/23 22:18:59;;;;;;;3.33;1.77;;;14.30;98.30;;;;;;20994761;28;20265;-65
2023/04/23 22:29:01;;;;;;;1.90;1.60;;;14.30;98.20;;;;;;20995489;28;20223;-65
2023/04/23 22:39:04;;;;;;;3.27;1.60;;;14.10;97.90;;;;;;20994537;28;20583;-65
2023/04/23 22:49:09;;;;;;;2.23;1.60;;;14.00;97.80;;;;;;20994226;28;20211;-64
2023/04/23 22:59:12;;;;;;;3.07;1.40;;;14.00;98.20;;;;;;20994059;28;20239;-65
2023/04/23 23:09:14;;;;;;;1.87;1.27;;;14.00;98.00;;;;;;20993523;28;20211;-64
2023/04/23 23:19:15;;;;;;;2.20;1.37;;;13.80;97.60;;;;;;20993168;28;20240;-64
2023/04/23 23:29:17;;;;;;;3.20;1.50;;;13.80;97.80;;;;;;20996291;28;20204;-64
2023/04/23 23:39:19;;;;;;;2.63;1.60;;;13.80;97.50;;;;;;21006954;28;20267;-65
2023/04/23 23:49:21;;;;;;;4.67;1.40;;;13.70;97.40;;;;;;21006030;28;20200;-65
2023/04/23 23:59:22;;;;;;;2.33;1.20;;;13.70;96.70;;;;;;21005875;28;20240;-64
